Seabreeze 1 — V3RT5 — position and weather

sailwx.info

Track history (hours):
 
Tides and Currents Weather Stations Pressure Air Temp Water Temp Dewpoint Dewpoint Depression Visibility Wind Speed Wind Dir Waves Ship Positions

Seabreeze 1

Last reported at 2015-Jan-26 19:23 UTC. Time now 2015-Jan-27 18:57 UTC.
Position N 44°27' E 035°18'.

Length 139 m; draft 2.8 m.

Type: Cargo ship. MMSI: 312411000.

Date/timePositionNaut miles runAvg speedWind from/ knotsBaromVisibWave heightAir tempDewpointWater temp
2015-Jan-26 19:23N 44°27' E 035°18'5 6.2
2015-Jan-26 18:32N 44°24' E 035°12'6 6.0
2015-Jan-26 17:32N 44°20' E 035°05'9 6.3
2015-Jan-26 16:10N 44°15' E 034°55'7 6.6
2015-Jan-26 15:08N 44°11' E 034°48'4 6.6
2015-Jan-26 14:32N 44°09' E 034°43'7 6.9
2015-Jan-26 13:28N 44°04' E 034°35'7 6.9
2015-Jan-26 12:28N 44°00' E 034°27'6 7.0
2015-Jan-26 11:33N 43°56' E 034°20'258 7.0
2015-Jan-24 22:33N 41°27' E 029°35'7 6.7
2015-Jan-24 21:33N 41°23' E 029°27'8 6.2
2015-Jan-24 20:18N 41°19' E 029°18'  
2015-Jan-20 22:33N 41°22' E 029°29'6 6.0
2015-Jan-20 21:33N 41°22' E 029°37'226 6.1
2015-Jan-19 08:33N 43°38' E 033°42'22 6.6
2015-Jan-19 05:16N 43°52' E 034°05'7 6.9
2015-Jan-19 04:15N 43°56' E 034°13'5 7.1
2015-Jan-19 03:33N 43°59' E 034°19'7 7.1
2015-Jan-19 02:33N 44°03' E 034°27'7 7.3
2015-Jan-19 01:34N 44°07' E 034°35'7 7.1
2015-Jan-19 00:34N 44°12' E 034°43'7 7.2
2015-Jan-18 23:33N 44°16' E 034°51'9 7.3
2015-Jan-18 22:20N 44°21' E 035°02'  
Track history (hours):
 
Tides and Currents Weather Stations Pressure Air Temp Water Temp Dewpoint Dewpoint Depression Visibility Wind Speed Wind Dir Waves Ship Positions

Seabreeze 1

Last reported at 2015-Jan-26 19:23 UTC. Time now 2015-Jan-27 18:57 UTC.
Position N 44°27' E 035°18'.

Length 139 m; draft 2.8 m.

Type: Cargo ship. MMSI: 312411000.

Date/timePositionNaut miles runAvg speedWind from/ knotsBaromVisibWave heightAir tempDewpointWater temp
2015-Jan-26 19:23N 44°27' E 035°18'5 6.2
2015-Jan-26 18:32N 44°24' E 035°12'6 6.0
2015-Jan-26 17:32N 44°20' E 035°05'9 6.3
2015-Jan-26 16:10N 44°15' E 034°55'7 6.6
2015-Jan-26 15:08N 44°11' E 034°48'4 6.6
2015-Jan-26 14:32N 44°09' E 034°43'7 6.9
2015-Jan-26 13:28N 44°04' E 034°35'7 6.9
2015-Jan-26 12:28N 44°00' E 034°27'6 7.0
2015-Jan-26 11:33N 43°56' E 034°20'258 7.0
2015-Jan-24 22:33N 41°27' E 029°35'7 6.7
2015-Jan-24 21:33N 41°23' E 029°27'8 6.2
2015-Jan-24 20:18N 41°19' E 029°18'  
2015-Jan-20 22:33N 41°22' E 029°29'6 6.0
2015-Jan-20 21:33N 41°22' E 029°37'226 6.1
2015-Jan-19 08:33N 43°38' E 033°42'22 6.6
2015-Jan-19 05:16N 43°52' E 034°05'7 6.9
2015-Jan-19 04:15N 43°56' E 034°13'5 7.1
2015-Jan-19 03:33N 43°59' E 034°19'7 7.1
2015-Jan-19 02:33N 44°03' E 034°27'7 7.3
2015-Jan-19 01:34N 44°07' E 034°35'7 7.1
2015-Jan-19 00:34N 44°12' E 034°43'7 7.2
2015-Jan-18 23:33N 44°16' E 034°51'9 7.3
2015-Jan-18 22:20N 44°21' E 035°02'  

Dump ship's entire track history